Arad, Ungaria

12:47 AM CET on ianuarie 22, 2017 (GMT +0100)
Nyéki major | | Change Station

Elev 315 ft 46.35 °N, 21.10 °E | Updated 17 seconds ago

Ceaţă
Ceaţă
17.2 °F
Feels Like 17 °F
N
0.0
Vânt variabil Vânt from ENE
Gusts 0.0 mph

astăzi
High -- | Low -- °F
--% Chance of Precip.
Ieri
High -- | Low -- °F
Precip. -- inch
Presiunea 30.54 inch
Vizibilitatea 1.6 mile
Nori
Vânt rece 17 °F
Punctul de rouă 11 °F
Umiditatea 75%
Precipitaţii 0.00 inch
Adâncimea zăpezii Not available.
7:09 AM 4:25 PM
Semilună în descreştere, 31% visible
METAR LRAR 212330Z 32003KT 2500 BR NSC M09/M09 Q1034
Presiunea 30.54 inch
Vizibilitatea 1.6 mile
Nori
Vânt rece 17 °F
Punctul de rouă 11 °F
Umiditatea 75%
Precipitaţii 0.00 inch
Adâncimea zăpezii Not available.
7:09 AM 4:25 PM
Semilună în descreştere, 31% visible
METAR LRAR 212330Z 32003KT 2500 BR NSC M09/M09 Q1034

Get Your Daily Forecast Email!

Thanks for signing up!

Be on the lookout for a verification email in your inbox.

You'll start receiving the daily forecast at 8 AM.

×

10-Day Weather Forecast

×

Almanac

Astronomie

Jan. 22, 2017 Răsărit Apus
Timpul Actual
Crepusculul Civil
Crepusculul nautic
Răsărit Astronomic
Luna
Durata zilei lumină
Lungimea zilei
Tomorrow will be .
, % of the Moon is Illuminated

Extremele de azi

Country Highs Country Lows

Community

WunderPhotos

Upload Photos

1,962,540 photos uploaded!

WunderBlog® & News

Nearby

Calitatea aerului

  Calitatea aerului Index de calitate a aerului Poluat
Not available.

Adâncimea zapezii

Station Depth Elevation

Earthquake Activity

Oraş Distance Mag. Time & Date
Minimum magnitude displayed is 2.5.

Coastal Water Temperatures

Locul Temperatura

Stations

Nearby Weather Stations

Locaţia staţiei Temp Vânt rece Punctul de rouă Umiditatea Vânt Precip. Elev Actualizare Type